首页
METAR-TAF:

METAR-TAF

机场 :

Litchfield Municipal Airport

Litchfield, 伊利诺伊州, 美国

纬度: 39-09-44N, 经度: 089-40-28W, 海拔: 210米

当前天气观测

该预报发布于19分钟前的04:35 UTC
风速7节,风向东南
温度 6°C
湿度 81%
气压 1007 hPa
能見度: 16.1公里
多云层高于6000英尺
阴天层高于10000英尺

METAR: K3LF 190435Z AUTO 13007KT 10SM BKN060 OVC100 06/03 A2974 RMK AO2 T00560030

时间: 22:54 (04:54 UTC)


TAF: 丢失

超过4000个机场的气象观测和天气预报(METAR&TAF报告)。

可查询的气象台以黄色和红色小点在地图上表示。

将鼠标移到小点上方,可查看气象台名称。

然后点击查看天气观测和预报。

如需切换地图:点击带黑十字的绿色按钮放大地图;点击带横线的绿色按钮缩小地图;或者点击绿色箭头查看邻近地区的地图。


METAR-TAF: